Brunswick, North Carolina
Current Conditions -  °F | °C
As of 2:55 PM on Thursday 23 Oct 2014 (Local Time) from KCPC Reporting Station
Clear Clear  
Wind Chill: 68°   Ceiling: Unl
Heat Index: 68°   Visibility: 10mi
Dew Point: 42°   Wind: 8mph
Humidity: 39%   Direction: 330°NNW
Pressure: 29.95"   Gusts: NA
Location:  34.29°N, 78.7°W
Report Text: KCPC 231855Z AUTO 33007KT 280V010 10SM CLR 20/06 A2995 RMK AO2 T02000056
Loading
Personal Weather Stations






























Interactive Weather Map
Tropical Storm Tracking
New forecast layout! Learn more

10-Day Weather Forecast

Advertisements
Track Severe Weather on mobile